Time;durP1;ratioP1;P1;durP2;ratioP2;P2;SDS_P1;SDS_P2;PMS_P1;PMS_P2;Temp;Humidity;BMP_temperature;BMP_pressure;BME280_temperature;BME280_humidity;BME280_pressure;Samples;Min_cycle;Max_cycle;Signal;HPM_P1;HPM_P2
2022/12/09 00:01:38;;;;;;;40.80;18.90;;;-1.80;94.70;;;;;;4977601;28;20256;-86
2022/12/09 00:04:04;;;;;;;61.03;16.63;;;-1.70;94.90;;;;;;4977296;28;20781;-86
2022/12/09 00:06:29;;;;;;;83.30;19.00;;;-1.60;94.90;;;;;;4977561;28;20178;-86
2022/12/09 00:08:56;;;;;;;95.90;22.33;;;-1.70;94.90;;;;;;4994874;28;20228;-87
2022/12/09 00:11:22;;;;;;;51.43;16.17;;;-1.70;95.10;;;;;;4977630;28;20296;-86
2022/12/09 00:13:50;;;;;;;84.73;18.93;;;-1.80;95.20;;;;;;4977302;28;20217;-86
2022/12/09 00:16:16;;;;;;;62.77;16.47;;;-1.70;95.20;;;;;;4994888;28;20173;-86
2022/12/09 00:18:42;;;;;;;107.40;18.83;;;-1.70;95.30;;;;;;4977064;28;20189;-86
2022/12/09 00:21:18;;;;;;;67.27;18.67;;;-1.60;95.40;;;;;;4994581;28;20173;-86
2022/12/09 00:23:43;;;;;;;31.17;18.27;;;-1.70;95.40;;;;;;4977043;28;20301;-86
2022/12/09 00:26:10;;;;;;;49.03;17.47;;;-1.70;95.50;;;;;;4977018;28;20185;-86
2022/12/09 00:28:35;;;;;;;55.83;17.83;;;-1.70;95.50;;;;;;4976614;28;20192;-85
2022/12/09 00:31:02;;;;;;;67.80;20.07;;;-1.70;95.60;;;;;;4976430;28;20263;-86
2022/12/09 00:33:32;;;;;;;61.97;19.13;;;-1.80;95.50;;;;;;4993750;28;20657;-86
2022/12/09 00:36:05;;;;;;;46.23;18.40;;;-1.80;95.60;;;;;;4976562;28;20268;-86
2022/12/09 00:38:31;;;;;;;45.73;18.93;;;-1.60;95.60;;;;;;4976280;28;20240;-86
2022/12/09 00:40:56;;;;;;;113.13;21.60;;;-1.70;95.60;;;;;;4976656;28;20185;-86
2022/12/09 00:43:22;;;;;;;70.10;21.67;;;-1.70;95.70;;;;;;4976600;28;20229;-85
2022/12/09 00:45:47;;;;;;;58.00;21.27;;;-1.70;95.70;;;;;;4976660;28;20272;-86
2022/12/09 00:48:13;;;;;;;60.70;20.13;;;-1.60;95.70;;;;;;4976703;28;20240;-86
2022/12/09 00:50:38;;;;;;;75.43;21.53;;;-1.70;95.70;;;;;;4976563;28;20264;-86
2022/12/09 00:53:04;;;;;;;67.50;21.73;;;-1.60;95.70;;;;;;4976050;28;20212;-85
2022/12/09 00:55:29;;;;;;;87.97;22.47;;;-1.70;95.70;;;;;;4993716;28;20163;-85
2022/12/09 00:57:54;;;;;;;149.80;26.23;;;-1.70;95.80;;;;;;4976332;28;20173;-86
2022/12/09 01:00:20;;;;;;;88.30;25.50;;;-1.60;95.80;;;;;;4993959;28;20204;-86
2022/12/09 01:02:46;;;;;;;93.23;24.87;;;-1.60;95.90;;;;;;4994106;28;20554;-86
2022/12/09 01:05:11;;;;;;;100.20;27.07;;;-1.60;95.90;;;;;;4976582;28;20225;-87
2022/12/09 01:07:37;;;;;;;88.17;25.90;;;-1.50;95.90;;;;;;4976798;28;20178;-87
2022/12/09 01:10:03;;;;;;;74.20;28.27;;;-1.40;95.90;;;;;;4994300;28;20523;-87
2022/12/09 01:12:29;;;;;;;65.67;27.60;;;-1.40;95.90;;;;;;4997838;28;20198;-86
2022/12/09 01:14:55;;;;;;;99.00;26.90;;;-1.30;95.90;;;;;;4997695;28;20198;-87
2022/12/09 01:17:20;;;;;;;60.47;28.10;;;-1.30;95.90;;;;;;4980060;28;20559;-86
2022/12/09 01:19:46;;;;;;;61.63;25.37;;;-1.30;95.90;;;;;;4979864;28;20198;-86
2022/12/09 01:22:12;;;;;;;53.20;27.63;;;-1.30;95.90;;;;;;4980180;28;20198;-86
2022/12/09 01:24:37;;;;;;;51.10;26.13;;;-1.20;96.00;;;;;;4980059;28;20198;-86
2022/12/09 01:27:03;;;;;;;60.73;27.43;;;-1.20;96.00;;;;;;4979769;28;20633;-86
2022/12/09 01:29:28;;;;;;;61.93;26.87;;;-1.20;95.90;;;;;;4979685;28;20220;-86
2022/12/09 01:31:54;;;;;;;64.03;27.83;;;-1.20;96.00;;;;;;4979804;28;20208;-86
2022/12/09 01:34:20;;;;;;;62.40;28.30;;;-1.30;96.00;;;;;;4996826;28;20233;-86
2022/12/09 01:36:49;;;;;;;54.60;27.47;;;-1.30;96.00;;;;;;4997071;28;20178;-86
2022/12/09 01:39:15;;;;;;;60.27;29.83;;;-1.20;96.00;;;;;;4997068;28;20209;-86
2022/12/09 01:41:41;;;;;;;77.17;32.00;;;-1.10;96.00;;;;;;4979547;28;20238;-86
2022/12/09 01:44:09;;;;;;;52.20;27.00;;;-1.10;96.00;;;;;;4979336;28;20210;-86
2022/12/09 01:46:35;;;;;;;49.47;29.37;;;-1.20;96.00;;;;;;4979512;28;20561;-87
2022/12/09 01:49:01;;;;;;;65.63;29.93;;;-1.10;96.10;;;;;;4979997;28;20280;-87
2022/12/09 01:51:27;;;;;;;56.17;28.83;;;-1.10;96.00;;;;;;4996875;28;20267;-87
2022/12/09 01:53:52;;;;;;;81.73;32.50;;;-1.10;96.00;;;;;;4979622;28;20198;-87
2022/12/09 01:56:32;;;;;;;59.53;29.67;;;-1.10;96.10;;;;;;4996901;28;20265;-88
2022/12/09 01:59:11;;;;;;;56.70;30.80;;;-1.10;96.10;;;;;;4979213;28;20170;-87
2022/12/09 02:01:38;;;;;;;61.23;30.43;;;-1.10;96.10;;;;;;4979921;28;20209;-87
2022/12/09 02:04:04;;;;;;;59.90;31.50;;;-1.00;96.10;;;;;;4978937;28;20234;-87
2022/12/09 02:06:30;;;;;;;61.93;31.13;;;-1.00;96.10;;;;;;4979292;28;20191;-87
2022/12/09 02:08:57;;;;;;;70.63;31.53;;;-1.00;96.10;;;;;;4979391;28;20552;-87
2022/12/09 02:11:40;;;;;;;70.20;35.67;;;-1.10;96.10;;;;;;4979475;28;20191;-87
2022/12/09 02:14:24;;;;;;;89.87;39.53;;;-1.00;96.20;;;;;;4981518;28;20207;-86
2022/12/09 02:17:27;;;;;;;79.83;37.03;;;-0.80;96.20;;;;;;4980742;28;20267;-87
2022/12/09 02:20:03;;;;;;;67.40;34.97;;;-0.80;96.20;;;;;;4979688;28;20174;-87
2022/12/09 02:22:42;;;;;;;61.80;32.57;;;-0.80;96.20;;;;;;4979548;28;20654;-86
2022/12/09 02:25:43;;;;;;;61.53;33.00;;;-0.80;96.20;;;;;;4980671;28;20221;-86
2022/12/09 02:28:15;;;;;;;67.63;34.10;;;-0.90;96.20;;;;;;4980320;28;20178;-87
2022/12/09 02:31:07;;;;;;;82.80;33.47;;;-0.80;96.20;;;;;;4997014;28;20173;-86
2022/12/09 02:33:56;;;;;;;61.60;31.50;;;-0.80;96.20;;;;;;4978298;28;20298;-87
2022/12/09 02:36:26;;;;;;;72.70;37.60;;;-0.90;96.10;;;;;;4978447;28;20176;-87
2022/12/09 02:38:52;;;;;;;58.10;33.23;;;-0.80;96.20;;;;;;4995672;28;20189;-87
2022/12/09 02:41:23;;;;;;;67.17;33.77;;;-0.80;96.20;;;;;;4978325;28;20179;-87
2022/12/09 02:43:54;;;;;;;79.60;34.17;;;-0.80;96.20;;;;;;4995592;28;20724;-86
2022/12/09 02:46:21;;;;;;;93.90;35.37;;;-0.80;96.20;;;;;;4995601;28;20207;-87
2022/12/09 02:48:52;;;;;;;104.03;33.17;;;-0.90;96.20;;;;;;4995643;28;20181;-87
2022/12/09 02:51:19;;;;;;;86.23;31.23;;;-0.90;96.20;;;;;;4995752;28;20208;-87
2022/12/09 02:53:47;;;;;;;76.03;34.30;;;-1.00;96.20;;;;;;4978718;28;20209;-86
2022/12/09 02:56:14;;;;;;;93.23;37.27;;;-0.90;96.20;;;;;;4978003;28;20651;-87
2022/12/09 02:58:40;;;;;;;90.87;32.50;;;-0.90;96.20;;;;;;4977889;28;20176;-86
2022/12/09 03:01:19;;;;;;;102.50;32.77;;;-0.90;96.30;;;;;;4977957;28;20178;-87
2022/12/09 03:03:45;;;;;;;100.93;35.23;;;-0.90;96.20;;;;;;4977801;28;20660;-87
2022/12/09 03:06:16;;;;;;;80.57;35.90;;;-0.90;96.30;;;;;;4977790;28;20189;-87
2022/12/09 03:08:57;;;;;;;96.67;35.40;;;-0.90;96.30;;;;;;4995371;28;20216;-87
2022/12/09 03:11:24;;;;;;;118.93;34.50;;;-0.90;96.20;;;;;;4995084;28;20584;-87
2022/12/09 03:14:11;;;;;;;110.47;33.60;;;-0.90;96.30;;;;;;4977610;28;20192;-87
2022/12/09 03:17:07;;;;;;;150.80;34.83;;;-0.90;96.30;;;;;;4977620;28;20240;-87
2022/12/09 03:19:46;;;;;;;116.43;36.13;;;-1.00;96.20;;;;;;4977573;28;20171;-87
2022/12/09 03:22:16;;;;;;;95.47;33.03;;;-1.00;96.30;;;;;;4977565;28;20224;-87
2022/12/09 03:25:01;;;;;;;110.80;34.80;;;-0.90;96.30;;;;;;4994837;28;20205;-87
2022/12/09 03:27:34;;;;;;;137.60;36.23;;;-0.90;96.30;;;;;;4977623;28;20233;-87
2022/12/09 03:30:02;;;;;;;107.60;37.23;;;-0.90;96.30;;;;;;4977522;28;20176;-87
2022/12/09 03:32:30;;;;;;;138.50;35.27;;;-1.00;96.30;;;;;;4977546;28;20683;-86
2022/12/09 03:35:08;;;;;;;98.13;35.30;;;-1.10;96.30;;;;;;4993720;28;20278;-86
2022/12/09 03:37:37;;;;;;;128.00;37.70;;;-1.00;96.30;;;;;;4977829;28;20633;-87
2022/12/09 03:40:06;;;;;;;120.33;39.87;;;-1.00;96.30;;;;;;4994857;28;20170;-86
2022/12/09 03:42:46;;;;;;;96.57;36.73;;;-1.00;96.30;;;;;;4961186;28;20195;-86
2022/12/09 03:45:15;;;;;;;119.73;33.77;;;-1.10;96.30;;;;;;4994481;28;20201;-87
2022/12/09 03:47:41;;;;;;;123.07;36.40;;;-1.00;96.30;;;;;;4977095;28;20187;-87
2022/12/09 03:50:07;;;;;;;102.07;36.90;;;-1.00;96.30;;;;;;4994440;28;20182;-86
2022/12/09 03:52:43;;;;;;;81.13;37.03;;;-1.00;96.30;;;;;;4977327;28;20212;-87
2022/12/09 03:55:29;;;;;;;120.10;35.53;;;-1.00;96.30;;;;;;5022429;23;20650;-83
2022/12/09 03:57:57;;;;;;;127.13;36.03;;;-1.00;96.30;;;;;;5013700;28;20170;-83
2022/12/09 04:00:23;;;;;;;91.40;37.80;;;-1.10;96.30;;;;;;5013691;28;20193;-83
2022/12/09 04:02:48;;;;;;;65.93;35.03;;;-1.10;96.30;;;;;;5013626;28;20648;-84
2022/12/09 04:05:14;;;;;;;97.20;37.60;;;-1.00;96.30;;;;;;5013811;28;20204;-84
2022/12/09 04:07:40;;;;;;;100.33;34.40;;;-1.10;96.30;;;;;;5013558;28;20207;-82
2022/12/09 04:10:06;;;;;;;114.40;37.00;;;-1.10;96.30;;;;;;5013890;28;20591;-83
2022/12/09 04:12:32;;;;;;;109.87;35.60;;;-1.20;96.30;;;;;;5012143;28;20202;-83
2022/12/09 04:14:57;;;;;;;124.07;37.53;;;-1.20;96.30;;;;;;5013647;28;20216;-83
2022/12/09 04:17:23;;;;;;;123.60;34.30;;;-1.30;96.30;;;;;;5013734;28;20173;-83
2022/12/09 04:19:48;;;;;;;116.53;36.80;;;-1.30;96.30;;;;;;5013427;28;20172;-83
2022/12/09 04:22:14;;;;;;;176.80;36.03;;;-1.30;96.30;;;;;;5012107;28;20185;-83
2022/12/09 04:24:39;;;;;;;97.57;38.60;;;-1.40;96.30;;;;;;5012098;28;20264;-82
2022/12/09 04:27:05;;;;;;;82.73;35.93;;;-1.30;96.30;;;;;;5013357;28;20232;-82
2022/12/09 04:29:30;;;;;;;122.57;35.40;;;-1.20;96.30;;;;;;5013574;28;20636;-84
2022/12/09 04:31:56;;;;;;;119.17;35.63;;;-1.30;96.30;;;;;;5011937;28;20241;-84
2022/12/09 04:34:21;;;;;;;127.30;35.40;;;-1.30;96.30;;;;;;5011994;28;20228;-84
2022/12/09 04:36:47;;;;;;;109.77;33.37;;;-1.30;96.30;;;;;;5013211;28;20193;-83
2022/12/09 04:39:13;;;;;;;66.50;36.63;;;-1.30;96.30;;;;;;5013224;28;20672;-83
2022/12/09 04:41:38;;;;;;;126.63;34.90;;;-1.30;96.30;;;;;;5013496;28;20174;-83
2022/12/09 04:44:04;;;;;;;153.37;33.33;;;-1.30;96.30;;;;;;5011964;28;20174;-83
2022/12/09 04:46:30;;;;;;;84.43;34.77;;;-1.40;96.30;;;;;;5015605;28;20199;-84
2022/12/09 04:48:55;;;;;;;103.33;32.50;;;-1.40;96.30;;;;;;5017633;28;20251;-84
2022/12/09 04:51:21;;;;;;;100.43;34.53;;;-1.30;96.30;;;;;;5015777;28;20180;-83
2022/12/09 04:53:46;;;;;;;97.43;33.90;;;-1.30;96.30;;;;;;5015753;28;20171;-83
2022/12/09 04:56:17;;;;;;;97.17;35.47;;;-1.20;96.30;;;;;;5016933;28;20584;-83
2022/12/09 04:58:43;;;;;;;77.47;36.07;;;-1.30;96.30;;;;;;5017039;28;20152;-84
2022/12/09 05:01:12;;;;;;;61.93;34.80;;;-1.20;96.30;;;;;;5015864;28;20170;-83
2022/12/09 05:03:38;;;;;;;72.70;33.40;;;-1.20;96.30;;;;;;5016854;28;20668;-84
2022/12/09 05:06:10;;;;;;;60.43;33.87;;;-1.20;96.30;;;;;;5016914;28;20192;-83
2022/12/09 05:08:35;;;;;;;60.43;34.93;;;-1.20;96.30;;;;;;5015595;28;20198;-82
2022/12/09 05:11:02;;;;;;;62.60;35.57;;;-1.10;96.40;;;;;;5016662;28;20649;-83
2022/12/09 05:13:28;;;;;;;57.43;35.23;;;-1.10;96.40;;;;;;5015311;28;20202;-83
2022/12/09 05:16:14;;;;;;;66.70;36.47;;;-1.10;96.30;;;;;;5015295;28;20728;-83
2022/12/09 05:18:39;;;;;;;62.97;38.27;;;-1.00;96.40;;;;;;5016161;28;20189;-83
2022/12/09 05:21:07;;;;;;;65.07;37.00;;;-1.00;96.40;;;;;;5016510;28;20176;-84
2022/12/09 05:23:34;;;;;;;61.23;35.70;;;-0.90;96.40;;;;;;5016535;28;20246;-83
2022/12/09 05:26:07;;;;;;;61.67;35.83;;;-0.90;96.40;;;;;;5015172;28;20414;-83
2022/12/09 05:28:33;;;;;;;58.23;34.83;;;-0.80;96.40;;;;;;5016470;28;20160;-83
2022/12/09 05:31:08;;;;;;;60.70;35.13;;;-0.80;96.40;;;;;;5015179;28;20197;-83
2022/12/09 05:33:34;;;;;;;63.90;36.50;;;-0.80;96.30;;;;;;5015081;28;20210;-83
2022/12/09 05:35:59;;;;;;;67.07;36.87;;;-0.80;96.30;;;;;;5016217;28;20191;-83
2022/12/09 05:38:25;;;;;;;66.57;35.17;;;-0.70;96.40;;;;;;5016196;28;20203;-83
2022/12/09 05:40:51;;;;;;;58.27;36.30;;;-0.70;96.40;;;;;;5016467;28;20200;-83
2022/12/09 05:43:16;;;;;;;71.27;37.07;;;-0.70;96.40;;;;;;5014910;28;20223;-83
2022/12/09 05:45:42;;;;;;;57.33;35.60;;;-0.60;96.40;;;;;;5014746;28;20196;-82
2022/12/09 05:48:08;;;;;;;60.53;34.77;;;-0.60;96.40;;;;;;5016059;28;20176;-83
2022/12/09 05:50:33;;;;;;;64.60;37.73;;;-0.50;96.40;;;;;;5015984;28;20205;-83
2022/12/09 05:52:59;;;;;;;58.03;34.13;;;-0.50;96.40;;;;;;5014636;28;20203;-83
2022/12/09 05:55:24;;;;;;;62.27;35.30;;;-0.50;96.40;;;;;;5014502;28;20686;-83
2022/12/09 05:57:50;;;;;;;51.40;33.80;;;-0.40;96.30;;;;;;5014798;28;20198;-83
2022/12/09 06:00:16;;;;;;;61.67;35.00;;;-0.40;96.40;;;;;;5015901;28;20199;-83
2022/12/09 06:02:42;;;;;;;58.73;34.07;;;-0.40;96.40;;;;;;5014494;28;20185;-83
2022/12/09 06:05:08;;;;;;;62.33;37.07;;;-0.40;96.40;;;;;;5015645;28;20208;-82
2022/12/09 06:07:34;;;;;;;58.53;35.37;;;-0.30;96.40;;;;;;5016244;28;20172;-82
2022/12/09 06:10:00;;;;;;;64.67;36.60;;;-0.40;96.40;;;;;;5015639;28;20181;-83
2022/12/09 06:12:26;;;;;;;63.83;35.80;;;-0.30;96.30;;;;;;5014305;28;20208;-83
2022/12/09 06:14:51;;;;;;;69.47;35.97;;;-0.30;96.30;;;;;;5014261;28;20188;-83
2022/12/09 06:17:17;;;;;;;65.00;35.60;;;-0.30;96.40;;;;;;5015456;28;20199;-83
2022/12/09 06:19:43;;;;;;;58.60;34.87;;;-0.20;96.40;;;;;;5014206;28;20175;-83
2022/12/09 06:22:09;;;;;;;69.50;36.70;;;-0.20;96.30;;;;;;5014166;28;20187;-83
2022/12/09 06:24:34;;;;;;;63.30;35.97;;;-0.20;96.30;;;;;;5015264;28;20529;-82
2022/12/09 06:27:00;;;;;;;63.23;37.47;;;-0.20;96.30;;;;;;5014040;28;20191;-83
2022/12/09 06:29:26;;;;;;;64.70;35.53;;;-0.10;96.30;;;;;;5014065;28;20184;-83
2022/12/09 06:31:51;;;;;;;65.33;36.93;;;-0.10;96.30;;;;;;5013950;28;20558;-84
2022/12/09 06:34:17;;;;;;;65.90;36.60;;;-0.10;96.30;;;;;;5015223;28;20197;-83
2022/12/09 06:36:43;;;;;;;66.40;37.80;;;-0.10;96.30;;;;;;5015025;28;20225;-83
2022/12/09 06:39:08;;;;;;;59.40;32.13;;;-0.10;96.30;;;;;;5013850;28;20176;-83
2022/12/09 06:41:34;;;;;;;66.83;37.73;;;-0.10;96.30;;;;;;5013778;28;20176;-83
2022/12/09 06:43:59;;;;;;;70.17;38.07;;;-0.10;96.20;;;;;;5013765;28;20176;-83
2022/12/09 06:46:26;;;;;;;61.90;37.90;;;0.00;96.20;;;;;;5013618;28;20190;-83
2022/12/09 06:48:53;;;;;;;76.50;39.43;;;0.00;96.20;;;;;;5014941;28;20243;-83
2022/12/09 06:51:20;;;;;;;66.17;38.13;;;0.00;96.20;;;;;;5014955;28;20173;-83
2022/12/09 06:53:46;;;;;;;63.30;36.07;;;0.00;96.10;;;;;;5015000;28;20557;-83
2022/12/09 06:56:13;;;;;;;63.60;37.67;;;0.00;96.10;;;;;;5013414;28;20220;-83
2022/12/09 06:58:42;;;;;;;66.67;38.97;;;0.00;96.00;;;;;;5013491;28;20177;-83
2022/12/09 07:01:12;;;;;;;60.87;36.27;;;0.00;96.00;;;;;;5013478;28;20178;-83
2022/12/09 07:03:39;;;;;;;65.27;37.23;;;0.00;96.00;;;;;;5014404;28;20210;-83
2022/12/09 07:06:06;;;;;;;62.87;36.20;;;0.00;95.90;;;;;;5013358;28;20243;-83
2022/12/09 07:08:32;;;;;;;55.93;32.07;;;0.10;95.90;;;;;;5013259;28;20185;-83
2022/12/09 07:10:57;;;;;;;59.47;33.53;;;0.00;95.80;;;;;;5013375;28;20184;-83
2022/12/09 07:13:24;;;;;;;60.43;35.23;;;0.00;95.80;;;;;;5014645;28;20234;-83
2022/12/09 07:15:49;;;;;;;64.13;36.63;;;0.00;95.60;;;;;;5013094;28;20649;-83
2022/12/09 07:18:15;;;;;;;64.80;37.20;;;0.00;95.60;;;;;;5013063;28;20235;-83
2022/12/09 07:20:41;;;;;;;54.77;34.37;;;0.00;95.60;;;;;;5014632;28;20212;-83
2022/12/09 07:23:06;;;;;;;60.40;36.40;;;0.00;95.60;;;;;;5012997;28;20220;-83
2022/12/09 07:25:32;;;;;;;59.70;34.70;;;0.00;95.60;;;;;;5014234;28;20211;-83
2022/12/09 07:27:57;;;;;;;54.53;34.17;;;0.00;95.50;;;;;;5012797;28;20233;-83
2022/12/09 07:30:23;;;;;;;52.87;34.37;;;0.00;95.50;;;;;;5012923;28;20181;-83
2022/12/09 07:32:48;;;;;;;48.37;33.23;;;0.00;95.50;;;;;;5014147;28;20207;-83
2022/12/09 07:35:14;;;;;;;49.50;32.37;;;0.00;95.40;;;;;;5014247;28;20197;-83
2022/12/09 07:37:39;;;;;;;47.63;32.60;;;0.00;95.40;;;;;;5014056;28;20181;-83
2022/12/09 07:40:06;;;;;;;49.87;32.50;;;0.00;95.40;;;;;;5012776;28;20188;-83
2022/12/09 07:42:31;;;;;;;47.43;30.97;;;-0.10;95.30;;;;;;5013220;28;20589;-83
2022/12/09 07:44:56;;;;;;;45.83;32.20;;;0.00;95.30;;;;;;5014316;28;20193;-84
2022/12/09 07:47:22;;;;;;;44.37;30.07;;;-0.10;95.30;;;;;;5012825;28;20222;-84
2022/12/09 07:49:47;;;;;;;43.27;30.93;;;-0.20;95.20;;;;;;5012645;28;20207;-84
2022/12/09 07:52:13;;;;;;;47.57;30.53;;;-0.30;95.20;;;;;;5012479;28;20682;-84
2022/12/09 07:54:38;;;;;;;38.53;28.70;;;-0.40;95.20;;;;;;5012412;28;20179;-82
2022/12/09 07:57:04;;;;;;;45.83;31.53;;;-0.40;95.20;;;;;;5013910;28;20261;-83
2022/12/09 07:59:29;;;;;;;46.97;30.83;;;-0.40;95.20;;;;;;5013935;28;20168;-83
2022/12/09 08:01:55;;;;;;;42.63;29.93;;;-0.40;95.10;;;;;;5012597;28;20173;-84
2022/12/09 08:04:20;;;;;;;48.63;30.80;;;-0.40;95.10;;;;;;5013877;28;20631;-83
2022/12/09 08:06:46;;;;;;;42.83;30.13;;;-0.50;95.10;;;;;;5012312;28;20205;-84
2022/12/09 08:09:12;;;;;;;44.80;31.40;;;-0.50;95.10;;;;;;5012387;28;20176;-84
2022/12/09 08:11:38;;;;;;;43.30;28.80;;;-0.60;95.10;;;;;;5012276;28;20275;-84
2022/12/09 08:14:06;;;;;;;43.47;30.30;;;-0.60;95.10;;;;;;5013566;28;20310;-84
2022/12/09 08:16:31;;;;;;;41.80;30.17;;;-0.70;95.10;;;;;;5012307;28;20199;-83
2022/12/09 08:18:57;;;;;;;46.80;29.40;;;-0.60;95.10;;;;;;5012449;28;20190;-83
2022/12/09 08:21:29;;;;;;;43.57;30.47;;;-0.70;95.10;;;;;;5012982;28;20182;-83
2022/12/09 08:23:57;;;;;;;46.90;29.47;;;-0.70;95.10;;;;;;5012327;28;20177;-83
2022/12/09 08:26:24;;;;;;;43.60;29.63;;;-0.60;95.10;;;;;;5013315;28;20192;-83
2022/12/09 08:28:50;;;;;;;38.80;29.90;;;-0.60;95.10;;;;;;5012134;28;20174;-83
2022/12/09 08:31:18;;;;;;;48.30;30.20;;;-0.60;95.00;;;;;;5012398;28;20560;-83
2022/12/09 08:33:44;;;;;;;48.23;29.87;;;-0.60;95.00;;;;;;5012009;28;20690;-83
2022/12/09 08:36:18;;;;;;;48.43;29.67;;;-0.80;94.90;;;;;;5013225;28;20631;-83
2022/12/09 08:38:45;;;;;;;46.53;29.53;;;-0.80;94.90;;;;;;5012084;28;20167;-84
2022/12/09 08:41:13;;;;;;;47.67;29.37;;;-0.90;94.90;;;;;;5012116;28;20185;-83
2022/12/09 08:43:40;;;;;;;47.90;29.50;;;-0.90;94.90;;;;;;5012168;28;20552;-83
2022/12/09 08:46:06;;;;;;;47.33;29.07;;;-0.90;94.90;;;;;;5013205;28;20275;-83
2022/12/09 08:48:36;;;;;;;47.70;30.10;;;-0.90;94.90;;;;;;5013546;28;20663;-83
2022/12/09 08:51:03;;;;;;;51.10;30.53;;;-0.90;94.90;;;;;;5011974;28;20166;-83
2022/12/09 08:53:28;;;;;;;49.70;30.23;;;-0.80;94.90;;;;;;5011932;28;20251;-82
2022/12/09 08:55:53;;;;;;;53.30;31.80;;;-0.80;94.90;;;;;;5011685;28;20612;-83
2022/12/09 08:58:19;;;;;;;50.03;30.60;;;-0.80;94.90;;;;;;5011793;28;20773;-83
2022/12/09 09:00:45;;;;;;;48.00;30.07;;;-0.80;94.90;;;;;;5013115;28;20177;-84
2022/12/09 09:03:10;;;;;;;50.77;31.90;;;-0.80;94.90;;;;;;5011874;28;20179;-83
2022/12/09 09:05:36;;;;;;;50.63;30.83;;;-0.80;94.90;;;;;;5013028;28;20254;-83
2022/12/09 09:08:01;;;;;;;49.30;31.90;;;-0.80;94.90;;;;;;5011932;28;20189;-83
2022/12/09 09:10:28;;;;;;;59.90;34.13;;;-0.70;94.90;;;;;;5011781;28;20621;-83
2022/12/09 09:12:54;;;;;;;59.03;32.50;;;-0.70;95.00;;;;;;5013323;28;20198;-83
2022/12/09 09:15:20;;;;;;;57.93;32.67;;;-0.70;95.00;;;;;;5013697;28;20192;-83
2022/12/09 09:17:45;;;;;;;53.03;32.23;;;-0.60;95.00;;;;;;5012073;28;20175;-83
2022/12/09 09:20:11;;;;;;;56.87;32.00;;;-0.60;95.00;;;;;;5012123;28;20184;-83
2022/12/09 09:22:37;;;;;;;53.83;32.80;;;-0.50;95.10;;;;;;5012540;28;20272;-83
2022/12/09 09:25:02;;;;;;;56.63;31.13;;;-0.50;95.00;;;;;;5012821;28;20201;-83
2022/12/09 09:27:28;;;;;;;50.83;30.90;;;-0.50;95.00;;;;;;5014290;28;20173;-83
2022/12/09 09:29:53;;;;;;;53.13;30.70;;;-0.50;95.10;;;;;;5013920;28;20178;-83
2022/12/09 09:32:19;;;;;;;58.20;33.37;;;-0.50;95.10;;;;;;5016101;28;20272;-84
2022/12/09 09:34:47;;;;;;;58.20;31.33;;;-0.40;95.10;;;;;;5017164;28;20170;-83
2022/12/09 09:37:12;;;;;;;51.70;30.63;;;-0.40;95.10;;;;;;5017783;28;20688;-83
2022/12/09 09:39:39;;;;;;;55.37;31.47;;;-0.40;95.10;;;;;;5017601;28;20199;-83
2022/12/09 09:42:11;;;;;;;51.03;30.57;;;-0.30;95.20;;;;;;5016038;28;20174;-84
2022/12/09 09:44:46;;;;;;;49.80;31.20;;;-0.30;95.20;;;;;;5015959;28;20691;-83
2022/12/09 09:47:39;;;;;;;53.00;31.67;;;-0.20;95.20;;;;;;5017023;28;20551;-83
2022/12/09 09:50:15;;;;;;;51.43;30.53;;;-0.20;95.20;;;;;;5017028;28;20178;-83
2022/12/09 09:52:41;;;;;;;59.17;31.40;;;-0.20;95.20;;;;;;5017362;28;20229;-83
2022/12/09 09:55:15;;;;;;;58.17;31.97;;;-0.10;95.30;;;;;;5016766;28;20289;-83
2022/12/09 09:58:07;;;;;;;55.07;32.93;;;0.00;95.30;;;;;;5016739;28;20645;-83
2022/12/09 10:00:49;;;;;;;55.03;31.40;;;0.00;95.30;;;;;;4997000;28;20251;-83
2022/12/09 10:03:37;;;;;;;60.03;31.67;;;0.00;95.30;;;;;;5016661;28;20159;-83
2022/12/09 10:06:39;;;;;;;55.87;31.43;;;0.00;95.30;;;;;;5016888;28;20203;-83
2022/12/09 10:09:29;;;;;;;62.23;33.00;;;0.00;95.30;;;;;;5016914;28;20306;-83
2022/12/09 10:12:07;;;;;;;58.43;33.17;;;0.00;95.30;;;;;;5016526;28;20630;-84
2022/12/09 10:15:10;;;;;;;55.70;31.33;;;0.10;95.30;;;;;;5016203;28;20160;-84
2022/12/09 10:17:48;;;;;;;54.30;28.33;;;0.10;95.30;;;;;;5016276;28;20164;-84
2022/12/09 10:20:17;;;;;;;49.87;29.63;;;0.10;95.30;;;;;;5016435;28;20211;-84
2022/12/09 10:22:51;;;;;;;56.13;30.43;;;0.20;95.40;;;;;;5015166;28;20207;-83
2022/12/09 10:25:27;;;;;;;58.70;30.67;;;0.20;95.30;;;;;;5015225;28;20754;-84
2022/12/09 10:28:00;;;;;;;60.43;32.93;;;0.20;95.30;;;;;;5016600;28;20175;-84
2022/12/09 10:30:26;;;;;;;59.77;33.10;;;0.30;95.30;;;;;;5016138;28;20505;-84
2022/12/09 10:32:52;;;;;;;57.33;32.13;;;0.30;95.30;;;;;;5016001;28;20196;-83
2022/12/09 10:35:25;;;;;;;63.90;32.33;;;0.30;95.30;;;;;;5014458;28;20654;-83
2022/12/09 10:37:53;;;;;;;60.20;33.00;;;0.30;95.30;;;;;;5016220;28;20164;-84
2022/12/09 10:40:29;;;;;;;63.20;32.93;;;0.40;95.30;;;;;;5015825;28;20180;-83
2022/12/09 10:45:49;;;;;;;64.33;32.00;;;0.60;95.40;;;;;;5015795;28;20219;-84
2022/12/09 10:48:24;;;;;;;55.10;30.93;;;0.70;95.30;;;;;;5071022;23;20229;-88
2022/12/09 10:50:59;;;;;;;64.50;34.00;;;0.70;95.30;;;;;;5014243;28;20247;-89
2022/12/09 10:53:26;;;;;;;64.77;35.63;;;0.80;95.30;;;;;;5013857;28;20213;-89
2022/12/09 10:55:54;;;;;;;63.23;34.03;;;0.90;95.30;;;;;;5015059;28;20173;-88
2022/12/09 10:58:23;;;;;;;59.03;33.33;;;1.00;95.30;;;;;;5013595;28;20216;-88
2022/12/09 11:01:15;;;;;;;63.77;36.37;;;1.10;95.30;;;;;;5013842;28;20259;-88
2022/12/09 11:03:53;;;;;;;68.37;36.77;;;1.20;95.30;;;;;;5013891;28;20530;-88
2022/12/09 11:06:26;;;;;;;63.77;34.70;;;1.20;95.20;;;;;;5013654;28;20203;-88
2022/12/09 11:09:01;;;;;;;60.63;34.13;;;1.20;95.20;;;;;;5014834;28;20213;-89
2022/12/09 11:11:48;;;;;;;58.07;33.63;;;1.20;95.10;;;;;;5013598;28;20192;-89
2022/12/09 11:14:27;;;;;;;58.63;33.73;;;1.20;95.00;;;;;;5013514;28;20197;-89
2022/12/09 11:16:56;;;;;;;52.73;31.00;;;1.30;95.00;;;;;;5013417;28;20193;-89
2022/12/09 11:19:34;;;;;;;58.70;34.07;;;1.30;94.80;;;;;;5013621;28;20181;-88
2022/12/09 11:22:39;;;;;;;65.70;34.43;;;1.30;94.80;;;;;;5013338;28;20176;-88
2022/12/09 11:25:10;;;;;;;57.93;34.03;;;1.30;94.80;;;;;;5014264;28;20177;-88
2022/12/09 11:27:39;;;;;;;57.03;32.83;;;1.50;94.70;;;;;;5014308;28;20200;-89
2022/12/09 11:30:14;;;;;;;61.40;34.03;;;1.50;94.60;;;;;;5013393;28;20235;-86
2022/12/09 11:32:58;;;;;;;59.60;34.67;;;1.50;94.50;;;;;;5013005;28;20276;-85
2022/12/09 11:35:42;;;;;;;59.43;33.57;;;1.60;94.30;;;;;;5014215;28;20248;-85
2022/12/09 11:38:40;;;;;;;57.83;32.40;;;1.70;94.30;;;;;;5014382;28;20686;-86
2022/12/09 11:41:11;;;;;;;50.40;31.07;;;1.70;94.20;;;;;;5013143;28;20663;-89
2022/12/09 11:43:53;;;;;;;56.53;31.93;;;1.80;94.10;;;;;;5012889;28;20587;-88
2022/12/09 11:46:25;;;;;;;60.77;32.47;;;1.80;94.00;;;;;;5013106;28;20176;-89
2022/12/09 11:48:55;;;;;;;57.20;34.30;;;1.80;93.80;;;;;;5012865;28;20543;-90
2022/12/09 11:51:25;;;;;;;57.30;31.67;;;1.90;93.60;;;;;;5012838;28;20188;-89
2022/12/09 11:53:54;;;;;;;55.07;32.87;;;2.00;93.70;;;;;;5012661;28;20201;-89
2022/12/09 11:56:24;;;;;;;47.07;29.03;;;2.00;93.40;;;;;;5011774;28;20255;-89
2022/12/09 11:59:03;;;;;;;53.53;32.27;;;2.00;93.20;;;;;;5013466;28;20201;-89
2022/12/09 12:01:38;;;;;;;53.17;32.70;;;2.00;93.00;;;;;;5012503;28;20628;-89
2022/12/09 12:04:08;;;;;;;50.10;32.97;;;2.00;92.90;;;;;;5014069;28;20165;-89
2022/12/09 12:07:04;;;;;;;47.37;31.30;;;2.20;93.00;;;;;;5012521;28;20221;-90
2022/12/09 12:09:38;;;;;;;54.60;32.43;;;2.30;92.70;;;;;;5013861;28;20666;-88
2022/12/09 12:12:22;;;;;;;47.77;31.00;;;2.30;92.50;;;;;;5012577;28;20227;-91
2022/12/09 12:14:47;;;;;;;49.17;32.20;;;2.50;92.40;;;;;;5012879;28;20161;-91
2022/12/09 12:17:24;;;;;;;48.23;31.03;;;2.40;92.10;;;;;;5012505;28;20255;-89
2022/12/09 12:19:51;;;;;;;46.90;31.93;;;2.50;91.70;;;;;;5013679;28;20170;-89
2022/12/09 12:22:49;;;;;;;45.57;29.90;;;2.40;91.60;;;;;;5012438;28;20181;-89
2022/12/09 12:25:26;;;;;;;46.70;29.30;;;2.40;91.20;;;;;;5012797;28;20248;-90
2022/12/09 12:28:20;;;;;;;42.57;27.60;;;2.40;91.30;;;;;;5013252;28;20211;-89
2022/12/09 12:30:53;;;;;;;41.83;27.30;;;2.40;91.20;;;;;;5013534;28;20180;-88
2022/12/09 12:33:32;;;;;;;50.00;29.50;;;2.40;91.00;;;;;;5012513;28;20700;-86
2022/12/09 12:36:06;;;;;;;38.93;27.30;;;2.40;90.80;;;;;;5012853;28;20169;-91
2022/12/09 12:38:50;;;;;;;41.70;26.97;;;2.50;90.90;;;;;;5013018;28;20194;-91
2022/12/09 12:41:27;;;;;;;43.27;28.93;;;2.40;90.60;;;;;;5013753;28;20236;-89
2022/12/09 12:47:32;;;;;;;35.80;24.13;;;2.20;90.70;;;;;;5013591;28;20219;-89
2022/12/09 12:50:19;;;;;;;38.53;24.33;;;2.00;90.90;;;;;;5012774;28;20268;-89